Wintersville, Ohio
Current Conditions -  °F | °C
As of 7:53 PM on Friday 24 Oct 2014 (Local Time) from KHLG Reporting Station
Clear Clear  
Wind Chill: 54°   Ceiling: Unl
Heat Index: 54°   Visibility: 10mi
Dew Point: 39°   Wind: 6mph
Humidity: 57%   Direction: 240°WSW
Pressure: 30.02"   Gusts: NA
Location:  40.3638°N, 80.7135°W
Report Text: KHLG 242353Z 24005KT 10SM CLR 12/04 A3002 RMK AO2 SLP173 T01220039 10161 20117 53004
Loading
Personal Weather Stations






























Interactive Weather Map
Tropical Storm Tracking
New forecast layout! Learn more

10-Day Weather Forecast

Advertisements
Track Severe Weather on mobile